Time;durP1;ratioP1;P1;durP2;ratioP2;P2;SDS_P1;SDS_P2;PMS_P1;PMS_P2;Temp;Humidity;BMP_temperature;BMP_pressure;BME280_temperature;BME280_humidity;BME280_pressure;Samples;Min_cycle;Max_cycle;Signal;HPM_P1;HPM_P2
2022/03/03 00:01:17;;;;;;;35.13;26.77;;;8.40;99.90;;;;;;5032884;28;20540;-75
2022/03/03 00:03:43;;;;;;;38.78;28.52;;;8.30;99.90;;;;;;5031156;28;20025;-75
2022/03/03 00:06:09;;;;;;;37.92;28.80;;;8.20;99.90;;;;;;5043822;28;20036;-75
2022/03/03 00:08:34;;;;;;;39.72;29.92;;;8.00;99.90;;;;;;5032530;28;20037;-75
2022/03/03 00:11:00;;;;;;;40.88;31.05;;;7.90;99.90;;;;;;5033623;28;20433;-75
2022/03/03 00:13:26;;;;;;;46.65;34.72;;;7.80;99.90;;;;;;5033106;28;20713;-75
2022/03/03 00:15:52;;;;;;;46.75;31.70;;;7.80;99.90;;;;;;5029106;28;20528;-76
2022/03/03 00:18:17;;;;;;;35.70;27.13;;;7.70;99.90;;;;;;5036241;28;20026;-75
2022/03/03 00:20:43;;;;;;;33.30;24.27;;;7.70;99.90;;;;;;5032733;28;20040;-74
2022/03/03 00:23:09;;;;;;;34.88;25.55;;;7.50;99.90;;;;;;5032809;28;20045;-75
2022/03/03 00:25:34;;;;;;;30.45;23.65;;;7.40;99.90;;;;;;5033439;28;20310;-75
2022/03/03 00:28:04;;;;;;;33.10;24.02;;;7.30;99.90;;;;;;5030232;28;20528;-73
2022/03/03 00:30:30;;;;;;;32.22;23.67;;;7.40;99.90;;;;;;5033064;28;20029;-75
2022/03/03 00:32:56;;;;;;;28.33;22.67;;;7.30;99.90;;;;;;5032708;28;20026;-75
2022/03/03 00:35:21;;;;;;;30.23;22.77;;;7.30;99.90;;;;;;5033130;28;20043;-76
2022/03/03 00:37:47;;;;;;;30.27;22.50;;;7.30;99.90;;;;;;5032348;28;20141;-75
2022/03/03 00:40:13;;;;;;;27.10;22.00;;;7.20;99.90;;;;;;5030752;28;20033;-76
2022/03/03 00:42:39;;;;;;;29.02;22.67;;;7.10;99.90;;;;;;5030989;28;20032;-76
2022/03/03 00:45:05;;;;;;;27.10;22.30;;;7.10;99.90;;;;;;5033632;28;20037;-75
2022/03/03 00:47:31;;;;;;;29.70;21.73;;;7.10;99.90;;;;;;5032486;28;20849;-75
2022/03/03 00:49:58;;;;;;;29.30;22.20;;;7.10;99.90;;;;;;5030990;28;20033;-75
2022/03/03 00:52:23;;;;;;;28.27;20.95;;;7.10;99.90;;;;;;5031376;28;20021;-75
2022/03/03 00:54:49;;;;;;;28.88;22.67;;;7.20;99.90;;;;;;5028613;28;20048;-75
2022/03/03 00:57:15;;;;;;;30.33;20.95;;;7.30;99.90;;;;;;5034522;28;20108;-75
2022/03/03 00:59:41;;;;;;;29.23;21.27;;;7.20;99.90;;;;;;5031917;28;20120;-75
2022/03/03 01:02:10;;;;;;;28.63;22.02;;;7.20;99.90;;;;;;5027330;28;20041;-75
2022/03/03 01:04:35;;;;;;;29.02;20.73;;;7.20;99.90;;;;;;5027330;28;20034;-76
2022/03/03 01:07:01;;;;;;;27.23;21.38;;;7.20;99.90;;;;;;5029077;28;20108;-76
2022/03/03 01:09:27;;;;;;;24.15;19.13;;;7.30;99.90;;;;;;5027497;28;20029;-77
2022/03/03 01:11:53;;;;;;;23.02;16.17;;;7.20;99.90;;;;;;5030399;28;20575;-76
2022/03/03 01:14:21;;;;;;;22.50;16.30;;;7.60;99.90;;;;;;5030015;28;20056;-75
2022/03/03 01:16:50;;;;;;;26.58;15.85;;;7.90;99.90;;;;;;5030055;28;20068;-75
2022/03/03 01:19:17;;;;;;;23.20;16.38;;;8.00;99.90;;;;;;5029760;28;20481;-75
2022/03/03 01:21:42;;;;;;;25.27;16.08;;;8.10;99.90;;;;;;5031605;28;20064;-75
2022/03/03 01:24:08;;;;;;;21.45;15.43;;;8.20;99.90;;;;;;5031694;28;20056;-76
2022/03/03 01:26:34;;;;;;;23.30;15.55;;;8.20;99.90;;;;;;5029880;28;20061;-75
2022/03/03 01:29:00;;;;;;;25.20;15.75;;;8.20;99.90;;;;;;5030133;28;20475;-75
2022/03/03 01:31:25;;;;;;;23.13;15.90;;;8.30;99.90;;;;;;5030022;28;20036;-76
2022/03/03 01:33:51;;;;;;;23.27;15.55;;;8.40;99.90;;;;;;5030366;28;20017;-76
2022/03/03 01:36:18;;;;;;;22.35;15.93;;;8.30;99.90;;;;;;5032497;28;20030;-76
2022/03/03 01:38:47;;;;;;;28.08;16.92;;;8.40;99.90;;;;;;5029604;28;20042;-76
2022/03/03 01:41:13;;;;;;;20.65;15.25;;;8.30;99.90;;;;;;5029599;28;20110;-76
2022/03/03 01:43:39;;;;;;;26.02;16.27;;;8.40;99.90;;;;;;5032301;28;20481;-76
2022/03/03 01:46:05;;;;;;;24.02;15.80;;;8.40;99.90;;;;;;5030133;28;20099;-76
2022/03/03 01:48:31;;;;;;;24.83;16.20;;;8.40;99.90;;;;;;5031693;28;20049;-75
2022/03/03 01:50:57;;;;;;;24.55;15.93;;;8.40;99.90;;;;;;5030386;28;20021;-76
2022/03/03 01:53:22;;;;;;;26.02;18.17;;;8.30;99.90;;;;;;5028908;28;20025;-76
2022/03/03 01:55:50;;;;;;;24.80;18.00;;;8.20;99.90;;;;;;5029832;28;20025;-76
2022/03/03 01:58:16;;;;;;;27.77;19.02;;;8.20;99.90;;;;;;5029503;28;20049;-76
2022/03/03 02:00:44;;;;;;;24.88;18.58;;;8.00;99.90;;;;;;5030899;28;20310;-76
2022/03/03 02:03:10;;;;;;;25.40;19.52;;;7.70;99.90;;;;;;5031120;28;20037;-75
2022/03/03 02:05:39;;;;;;;28.38;19.30;;;7.50;99.90;;;;;;5028957;28;20022;-76
2022/03/03 02:08:05;;;;;;;24.05;19.60;;;7.40;99.90;;;;;;5028967;28;20029;-76
2022/03/03 02:10:33;;;;;;;29.45;20.92;;;7.10;99.90;;;;;;5029351;28;20024;-76
2022/03/03 02:12:59;;;;;;;25.02;19.60;;;7.10;99.90;;;;;;5044527;28;20026;-75
2022/03/03 02:15:25;;;;;;;24.80;20.90;;;7.00;99.90;;;;;;5047383;28;20051;-76
2022/03/03 02:17:51;;;;;;;25.92;19.85;;;7.00;99.90;;;;;;5029251;28;20064;-75
2022/03/03 02:20:22;;;;;;;28.65;21.38;;;6.90;99.90;;;;;;5027119;28;20029;-76
2022/03/03 02:22:49;;;;;;;26.75;20.33;;;6.80;99.90;;;;;;5027609;28;20444;-76
2022/03/03 02:25:15;;;;;;;25.50;20.92;;;6.90;99.90;;;;;;5028863;28;20021;-75
2022/03/03 02:27:42;;;;;;;28.02;17.63;;;6.90;99.90;;;;;;5030819;28;20021;-76
2022/03/03 02:30:09;;;;;;;24.30;16.92;;;7.10;99.90;;;;;;5030291;28;20124;-75
2022/03/03 02:32:35;;;;;;;22.83;15.68;;;7.30;99.90;;;;;;5028686;28;20037;-75
2022/03/03 02:35:01;;;;;;;30.52;18.23;;;7.60;99.90;;;;;;5028810;28;20088;-75
2022/03/03 02:37:53;;;;;;;28.60;17.73;;;7.70;99.90;;;;;;5028435;28;20025;-75
2022/03/03 02:40:22;;;;;;;25.40;18.98;;;7.80;99.90;;;;;;5027487;28;20041;-75
2022/03/03 02:42:53;;;;;;;26.95;19.17;;;7.60;99.90;;;;;;5029711;28;20029;-76
2022/03/03 02:45:19;;;;;;;26.63;19.40;;;7.50;99.90;;;;;;5031900;28;20386;-75
2022/03/03 02:47:48;;;;;;;30.95;21.58;;;7.30;99.90;;;;;;5028212;28;20099;-76
2022/03/03 02:50:15;;;;;;;28.70;20.67;;;7.20;99.90;;;;;;5028059;28;20031;-76
2022/03/03 02:52:41;;;;;;;28.73;21.73;;;7.20;99.90;;;;;;5028919;28;20056;-75
2022/03/03 02:55:12;;;;;;;29.10;20.48;;;7.00;99.90;;;;;;5028357;28;20069;-75
2022/03/03 02:57:56;;;;;;;34.70;21.08;;;7.10;99.90;;;;;;5028710;28;20032;-75
2022/03/03 03:00:31;;;;;;;29.02;18.38;;;7.10;99.90;;;;;;5029644;28;20104;-75
2022/03/03 03:02:57;;;;;;;27.17;19.63;;;7.40;99.90;;;;;;5030306;28;20037;-75
2022/03/03 03:05:23;;;;;;;25.00;18.77;;;7.40;99.90;;;;;;5027260;28;20080;-76
2022/03/03 03:07:49;;;;;;;26.65;20.30;;;7.30;99.90;;;;;;5028287;28;20088;-76
2022/03/03 03:10:15;;;;;;;25.50;19.90;;;6.90;99.90;;;;;;5028134;28;20458;-76
2022/03/03 03:12:41;;;;;;;27.33;19.83;;;6.70;99.90;;;;;;5030458;28;20507;-76
2022/03/03 03:15:10;;;;;;;28.25;20.63;;;6.40;99.90;;;;;;5029909;28;20052;-75
2022/03/03 03:17:39;;;;;;;30.00;20.75;;;6.40;99.90;;;;;;5027508;28;20041;-75
2022/03/03 03:20:09;;;;;;;24.63;20.30;;;6.30;99.90;;;;;;5028249;28;20026;-75
2022/03/03 03:22:36;;;;;;;27.63;18.95;;;6.10;99.90;;;;;;5028095;28;20569;-75
2022/03/03 03:25:07;;;;;;;26.67;20.10;;;6.00;99.90;;;;;;5028160;28;20022;-75
2022/03/03 03:27:34;;;;;;;28.25;20.27;;;5.80;99.90;;;;;;5030204;28;20398;-75
2022/03/03 03:30:00;;;;;;;28.60;20.05;;;5.80;99.90;;;;;;5028827;28;20075;-75
2022/03/03 03:32:25;;;;;;;28.17;19.90;;;5.90;99.90;;;;;;5026367;28;20047;-76
2022/03/03 03:34:51;;;;;;;25.77;20.38;;;5.70;99.90;;;;;;5027951;28;20537;-75
2022/03/03 03:37:17;;;;;;;25.77;20.23;;;5.60;99.90;;;;;;5028236;28;20021;-75
2022/03/03 03:39:43;;;;;;;25.42;19.45;;;5.70;99.90;;;;;;5028278;28;20091;-75
2022/03/03 03:42:09;;;;;;;28.75;20.23;;;5.80;99.90;;;;;;5029604;28;20398;-76
2022/03/03 03:44:35;;;;;;;31.08;19.15;;;5.80;99.90;;;;;;5027821;28;20080;-75
2022/03/03 03:47:02;;;;;;;28.70;19.85;;;5.90;99.90;;;;;;5027508;28;20522;-75
2022/03/03 03:49:28;;;;;;;28.20;18.77;;;6.00;99.90;;;;;;5027551;28;20049;-75
2022/03/03 03:51:54;;;;;;;26.83;19.33;;;6.00;99.90;;;;;;5028235;28;20045;-76
2022/03/03 03:54:19;;;;;;;27.45;20.92;;;6.00;99.90;;;;;;5031095;28;20025;-75
2022/03/03 03:56:45;;;;;;;27.55;19.88;;;5.90;99.90;;;;;;5026397;28;20029;-75
2022/03/03 03:59:11;;;;;;;30.85;22.38;;;5.90;99.90;;;;;;5027782;28;20025;-76
2022/03/03 04:01:37;;;;;;;28.65;22.35;;;5.90;99.90;;;;;;5027403;28;20084;-75
2022/03/03 04:04:03;;;;;;;30.23;21.77;;;5.70;99.90;;;;;;5027653;28;20511;-75
2022/03/03 04:06:29;;;;;;;26.35;21.35;;;5.70;99.90;;;;;;5030220;28;20026;-75
2022/03/03 04:08:54;;;;;;;30.17;22.33;;;5.70;99.90;;;;;;5044137;28;20040;-75
2022/03/03 04:11:20;;;;;;;26.77;20.52;;;5.80;99.90;;;;;;5027469;28;20061;-75
2022/03/03 04:13:46;;;;;;;27.33;20.73;;;5.80;99.90;;;;;;5019322;28;20026;-76
2022/03/03 04:16:11;;;;;;;27.45;20.10;;;5.80;99.90;;;;;;5028339;28;20025;-75
2022/03/03 04:18:40;;;;;;;27.35;20.13;;;5.80;99.90;;;;;;5032211;28;20030;-75
2022/03/03 04:21:06;;;;;;;28.63;19.52;;;5.80;99.90;;;;;;5032950;28;20045;-75
2022/03/03 04:23:32;;;;;;;29.67;20.65;;;5.90;99.90;;;;;;5031415;28;20028;-75
2022/03/03 04:25:57;;;;;;;27.65;20.27;;;5.90;99.90;;;;;;5031070;28;20387;-74
2022/03/03 04:28:23;;;;;;;25.52;19.30;;;5.90;99.90;;;;;;5031591;28;20120;-75
2022/03/03 04:30:49;;;;;;;27.05;20.63;;;5.80;99.90;;;;;;5031514;28;20542;-75
2022/03/03 04:33:15;;;;;;;27.05;19.63;;;5.90;99.90;;;;;;5033577;28;20025;-75
2022/03/03 04:35:41;;;;;;;29.27;22.25;;;5.80;99.90;;;;;;5030771;28;20113;-75
2022/03/03 04:38:10;;;;;;;32.55;24.02;;;5.70;99.90;;;;;;5031299;28;20056;-75
2022/03/03 04:40:35;;;;;;;33.60;23.95;;;5.60;99.90;;;;;;5030701;28;20033;-75
2022/03/03 04:43:01;;;;;;;32.67;22.50;;;5.50;99.90;;;;;;5030745;28;20034;-75
2022/03/03 04:45:27;;;;;;;27.38;21.60;;;5.40;99.90;;;;;;5033524;28;20458;-76
2022/03/03 04:47:52;;;;;;;27.02;20.85;;;5.40;99.90;;;;;;5030985;28;20117;-75
2022/03/03 04:50:18;;;;;;;26.70;20.77;;;5.40;99.90;;;;;;5031049;28;20065;-75
2022/03/03 04:52:44;;;;;;;26.02;19.30;;;5.40;99.90;;;;;;5032203;28;20036;-75
2022/03/03 04:55:10;;;;;;;22.27;17.70;;;5.40;99.90;;;;;;5032582;28;20022;-76
2022/03/03 04:57:39;;;;;;;31.15;19.85;;;5.40;99.90;;;;;;5032483;28;20013;-75
2022/03/03 05:00:06;;;;;;;26.30;18.63;;;5.30;99.90;;;;;;5031515;28;20509;-75
2022/03/03 05:02:32;;;;;;;25.50;17.90;;;5.40;99.90;;;;;;5030592;28;20069;-75
2022/03/03 05:04:58;;;;;;;25.98;18.92;;;5.30;99.90;;;;;;5031118;28;20479;-75
2022/03/03 05:07:24;;;;;;;25.42;18.50;;;5.20;99.90;;;;;;5031015;28;20463;-76
2022/03/03 05:09:49;;;;;;;25.50;18.73;;;5.20;99.90;;;;;;5031506;28;20446;-76
2022/03/03 05:12:15;;;;;;;27.55;18.42;;;5.30;99.90;;;;;;5032992;28;20562;-75
2022/03/03 05:14:41;;;;;;;30.50;18.63;;;5.30;99.90;;;;;;5030063;28;20037;-75
2022/03/03 05:17:09;;;;;;;26.05;19.63;;;5.20;99.90;;;;;;5030798;28;20079;-75
2022/03/03 05:19:36;;;;;;;26.08;19.73;;;5.30;99.90;;;;;;5030960;28;20057;-75
2022/03/03 05:22:01;;;;;;;27.58;20.92;;;5.10;99.90;;;;;;5030317;28;20037;-75
2022/03/03 05:24:27;;;;;;;30.40;22.45;;;5.10;99.90;;;;;;5032979;28;20099;-75
2022/03/03 05:26:53;;;;;;;39.08;28.90;;;5.10;99.90;;;;;;5030800;28;20052;-75
2022/03/03 05:29:19;;;;;;;37.80;28.88;;;5.10;99.90;;;;;;5028686;28;20034;-75
2022/03/03 05:31:44;;;;;;;35.25;26.33;;;5.10;99.90;;;;;;5030439;28;20429;-75
2022/03/03 05:34:10;;;;;;;31.33;24.35;;;5.10;99.90;;;;;;5030089;28;20084;-75
2022/03/03 05:36:40;;;;;;;32.08;22.48;;;5.20;99.90;;;;;;5032164;28;20025;-75
2022/03/03 05:39:09;;;;;;;29.08;22.10;;;5.20;99.90;;;;;;5031039;28;20487;-75
2022/03/03 05:41:35;;;;;;;28.80;22.15;;;5.10;99.90;;;;;;5032140;28;20052;-75
2022/03/03 05:44:02;;;;;;;28.50;22.27;;;5.00;99.90;;;;;;5031495;28;20116;-75
2022/03/03 05:46:28;;;;;;;30.30;22.85;;;5.10;99.90;;;;;;5031875;28;20550;-75
2022/03/03 05:48:54;;;;;;;25.67;20.95;;;5.20;99.90;;;;;;5030748;28;20414;-75
2022/03/03 05:51:20;;;;;;;29.13;21.73;;;5.10;99.90;;;;;;5032684;28;20036;-75
2022/03/03 05:53:46;;;;;;;32.88;21.55;;;5.00;99.90;;;;;;5031309;28;20033;-76
2022/03/03 05:56:16;;;;;;;32.70;21.83;;;5.10;99.90;;;;;;5031634;28;20036;-75
2022/03/03 05:58:46;;;;;;;28.75;20.92;;;5.20;99.90;;;;;;5031024;28;20035;-75
2022/03/03 06:01:17;;;;;;;24.63;20.52;;;5.30;99.90;;;;;;5031364;28;20533;-75
2022/03/03 06:03:47;;;;;;;29.48;20.95;;;5.30;99.90;;;;;;5031490;28;20029;-75
2022/03/03 06:06:15;;;;;;;26.00;19.73;;;5.20;99.90;;;;;;5032676;28;20029;-75
2022/03/03 06:08:48;;;;;;;30.27;20.15;;;5.20;99.90;;;;;;5031679;28;20060;-75
2022/03/03 06:11:15;;;;;;;28.73;19.83;;;5.20;99.90;;;;;;5031076;28;20044;-76
2022/03/03 06:13:46;;;;;;;25.17;20.15;;;5.30;99.90;;;;;;5031222;28;20072;-75
2022/03/03 06:16:19;;;;;;;28.33;19.90;;;5.30;99.90;;;;;;5031418;28;20025;-75
2022/03/03 06:18:46;;;;;;;28.60;19.52;;;5.40;99.90;;;;;;5031524;28;20036;-75
2022/03/03 06:21:12;;;;;;;28.20;20.15;;;5.40;99.90;;;;;;5032206;28;20026;-75
2022/03/03 06:23:38;;;;;;;29.92;20.45;;;5.40;99.90;;;;;;5031090;28;20103;-77
2022/03/03 06:26:07;;;;;;;29.35;20.70;;;5.30;99.90;;;;;;5030546;28;20087;-71
2022/03/03 06:28:34;;;;;;;29.02;21.60;;;5.30;99.90;;;;;;5031368;28;20484;-76
2022/03/03 06:31:00;;;;;;;36.45;22.88;;;5.30;99.90;;;;;;5030869;28;20034;-76
2022/03/03 06:33:26;;;;;;;32.58;23.15;;;5.50;99.90;;;;;;5030423;28;20096;-76
2022/03/03 06:35:52;;;;;;;32.03;21.63;;;5.30;99.90;;;;;;5031015;28;20474;-77
2022/03/03 06:38:18;;;;;;;34.08;24.40;;;5.40;99.90;;;;;;5030571;28;20401;-76
2022/03/03 06:40:44;;;;;;;32.75;22.83;;;5.50;99.90;;;;;;5030464;28;20029;-77
2022/03/03 06:43:10;;;;;;;31.45;23.33;;;5.50;99.90;;;;;;5030702;28;20112;-77
2022/03/03 06:45:36;;;;;;;34.53;23.58;;;5.60;99.90;;;;;;5031108;28;20104;-77
2022/03/03 06:48:04;;;;;;;33.63;24.42;;;5.60;99.90;;;;;;5033003;28;20883;-77
2022/03/03 06:50:33;;;;;;;35.15;25.23;;;5.50;99.90;;;;;;5034367;28;20055;-77
2022/03/03 06:53:01;;;;;;;36.47;23.60;;;5.60;99.90;;;;;;5033038;28;20029;-77
2022/03/03 06:55:27;;;;;;;36.88;24.60;;;5.60;99.90;;;;;;5031369;28;20075;-77
2022/03/03 06:57:54;;;;;;;36.35;25.05;;;5.60;99.90;;;;;;5035943;28;20033;-76
2022/03/03 07:00:33;;;;;;;32.78;22.83;;;5.70;99.90;;;;;;5031524;28;20029;-77
2022/03/03 07:03:01;;;;;;;29.42;22.85;;;5.70;99.90;;;;;;5032344;28;20045;-77
2022/03/03 07:05:30;;;;;;;31.88;23.83;;;5.90;99.90;;;;;;5033482;28;20022;-76
2022/03/03 07:07:56;;;;;;;34.55;24.60;;;5.90;99.90;;;;;;5029627;28;20029;-75
2022/03/03 07:10:25;;;;;;;37.28;24.00;;;6.00;99.90;;;;;;5035193;28;20021;-76
2022/03/03 07:12:53;;;;;;;33.10;23.00;;;6.10;99.90;;;;;;5029388;28;20030;-80
2022/03/03 07:15:24;;;;;;;35.63;24.08;;;6.20;99.90;;;;;;5031136;28;20527;-77
2022/03/03 07:17:53;;;;;;;33.97;24.58;;;6.30;99.90;;;;;;5029479;28;20160;-77
2022/03/03 07:20:37;;;;;;;37.33;24.05;;;6.40;99.90;;;;;;5029249;28;20410;-77
2022/03/03 07:23:25;;;;;;;37.45;25.13;;;6.50;99.90;;;;;;5029623;28;20041;-77
2022/03/03 07:25:54;;;;;;;40.13;24.30;;;6.60;99.90;;;;;;5028982;28;20096;-77
2022/03/03 07:28:21;;;;;;;40.83;27.75;;;6.70;99.90;;;;;;5029236;28;20449;-77
2022/03/03 07:30:51;;;;;;;52.28;30.80;;;6.80;99.90;;;;;;5029108;28;20071;-77
2022/03/03 07:33:34;;;;;;;49.00;30.58;;;6.90;99.90;;;;;;5030669;28;20029;-77
2022/03/03 07:36:02;;;;;;;51.83;29.85;;;7.00;99.90;;;;;;5030302;28;20414;-77
2022/03/03 07:38:35;;;;;;;48.35;27.85;;;7.00;99.90;;;;;;5028552;28;20021;-72
2022/03/03 07:41:02;;;;;;;52.80;30.42;;;7.10;99.90;;;;;;5028632;28;20037;-75
2022/03/03 07:43:29;;;;;;;41.35;29.52;;;7.10;99.90;;;;;;5029169;28;20034;-75
2022/03/03 07:45:54;;;;;;;41.47;28.75;;;7.30;99.90;;;;;;5028812;28;20151;-75
2022/03/03 07:48:23;;;;;;;43.03;28.23;;;7.40;99.90;;;;;;5030963;28;20149;-75
2022/03/03 07:50:50;;;;;;;40.42;28.15;;;7.50;99.90;;;;;;5028722;28;20043;-75
2022/03/03 07:53:15;;;;;;;41.15;27.65;;;7.60;99.90;;;;;;5027554;28;20692;-75
2022/03/03 07:55:47;;;;;;;36.05;26.27;;;7.90;99.90;;;;;;5032658;28;20036;-74
2022/03/03 07:58:18;;;;;;;33.05;21.25;;;8.00;99.90;;;;;;5032251;28;20390;-74
2022/03/03 08:00:53;;;;;;;31.80;22.35;;;8.20;99.90;;;;;;5033164;28;20033;-74
2022/03/03 08:03:21;;;;;;;30.58;20.75;;;8.40;99.90;;;;;;5034582;28;20494;-74
2022/03/03 08:05:51;;;;;;;31.08;22.33;;;8.60;99.90;;;;;;5032081;28;20470;-74
2022/03/03 08:08:21;;;;;;;32.60;24.20;;;8.60;99.90;;;;;;5031715;28;20125;-74
2022/03/03 08:10:47;;;;;;;33.28;24.88;;;8.60;99.90;;;;;;5030535;28;20523;-73
2022/03/03 08:13:17;;;;;;;31.02;25.25;;;8.70;99.90;;;;;;5027177;28;20018;-73
2022/03/03 08:15:45;;;;;;;31.23;23.48;;;8.70;99.90;;;;;;5028086;28;20076;-74
2022/03/03 08:18:11;;;;;;;30.67;22.35;;;8.90;99.90;;;;;;5028605;28;20029;-75
2022/03/03 08:20:40;;;;;;;31.45;22.38;;;9.00;99.90;;;;;;5027154;28;20108;-74
2022/03/03 08:23:10;;;;;;;29.58;21.27;;;9.20;99.90;;;;;;5026731;28;20021;-74
2022/03/03 08:25:39;;;;;;;28.98;20.48;;;9.30;99.90;;;;;;5027128;28;20035;-74
2022/03/03 08:28:06;;;;;;;28.83;21.92;;;9.60;99.90;;;;;;5025787;28;20057;-74
2022/03/03 08:30:32;;;;;;;31.35;22.25;;;9.80;99.90;;;;;;5027744;28;20028;-76
2022/03/03 08:33:20;;;;;;;30.38;21.17;;;9.90;99.90;;;;;;5029344;28;20437;-76
2022/03/03 08:35:54;;;;;;;26.38;20.35;;;10.30;99.90;;;;;;5026779;28;20030;-76
2022/03/03 08:38:45;;;;;;;25.70;18.85;;;10.70;99.90;;;;;;5026320;28;20026;-76
2022/03/03 08:41:14;;;;;;;27.13;19.00;;;11.90;99.90;;;;;;5026487;28;20506;-75
2022/03/03 08:43:42;;;;;;;24.58;19.25;;;14.00;99.90;;;;;;5027277;28;20120;-76
2022/03/03 08:46:09;;;;;;;23.83;19.08;;;15.40;98.40;;;;;;5030717;28;20491;-76
2022/03/03 08:48:35;;;;;;;24.17;17.83;;;16.50;94.90;;;;;;5031365;28;20422;-75
2022/03/03 08:51:04;;;;;;;24.33;16.83;;;17.30;91.80;;;;;;5026109;28;20034;-74
2022/03/03 08:53:30;;;;;;;26.38;18.00;;;17.80;90.20;;;;;;5031591;28;20029;-72
2022/03/03 08:55:58;;;;;;;24.70;18.10;;;18.20;88.10;;;;;;5031335;28;20037;-76
2022/03/03 08:58:25;;;;;;;24.98;17.60;;;16.90;88.70;;;;;;5029341;28;20029;-74
2022/03/03 09:00:51;;;;;;;25.42;18.60;;;16.00;91.60;;;;;;5032111;28;20029;-73
2022/03/03 09:03:21;;;;;;;25.95;17.33;;;16.20;91.90;;;;;;5033336;28;20041;-74
2022/03/03 09:05:48;;;;;;;22.88;17.55;;;16.00;92.70;;;;;;5032213;28;20431;-74
2022/03/03 09:08:14;;;;;;;27.60;17.75;;;14.90;94.70;;;;;;5032163;28;20044;-74
2022/03/03 09:10:41;;;;;;;24.95;17.77;;;15.70;95.80;;;;;;5027601;28;20022;-74
2022/03/03 09:13:07;;;;;;;23.88;17.30;;;17.60;91.50;;;;;;5030263;28;20172;-74
2022/03/03 09:15:33;;;;;;;21.33;16.88;;;18.70;87.90;;;;;;5033411;28;20029;-74
2022/03/03 09:18:00;;;;;;;22.65;16.67;;;18.90;86.00;;;;;;5033819;28;20041;-74
2022/03/03 09:20:26;;;;;;;20.27;15.80;;;18.00;84.00;;;;;;5031869;28;20075;-74
2022/03/03 09:22:52;;;;;;;25.23;16.58;;;19.80;83.60;;;;;;5032681;28;20041;-74
2022/03/03 09:25:18;;;;;;;21.65;15.98;;;21.00;77.30;;;;;;5029163;28;20106;-74
2022/03/03 09:27:44;;;;;;;21.58;14.32;;;18.80;78.70;;;;;;5033337;28;20502;-75
2022/03/03 09:30:10;;;;;;;19.75;13.82;;;17.60;83.50;;;;;;5029691;28;20041;-76
2022/03/03 09:32:38;;;;;;;18.70;14.02;;;18.80;84.00;;;;;;5029439;28;20052;-73
2022/03/03 09:35:05;;;;;;;19.63;14.02;;;19.30;80.20;;;;;;5031206;28;20558;-76
2022/03/03 09:37:31;;;;;;;26.85;17.33;;;21.00;75.80;;;;;;5026541;28;20419;-76
2022/03/03 09:39:57;;;;;;;22.40;15.68;;;22.30;72.60;;;;;;5026024;28;20033;-76
2022/03/03 09:42:23;;;;;;;23.33;16.83;;;22.80;69.40;;;;;;5029977;28;20037;-75
2022/03/03 09:44:49;;;;;;;21.90;15.77;;;23.30;66.90;;;;;;5027805;28;20017;-76
2022/03/03 09:47:16;;;;;;;17.67;15.00;;;23.60;65.20;;;;;;5027556;28;20376;-76
2022/03/03 09:49:42;;;;;;;22.27;16.27;;;23.70;64.10;;;;;;5027670;28;20045;-76
2022/03/03 09:52:12;;;;;;;20.00;14.52;;;23.60;63.60;;;;;;5027600;28;20038;-76
2022/03/03 09:54:38;;;;;;;23.42;15.68;;;23.60;62.80;;;;;;5029162;28;20041;-76
2022/03/03 09:57:04;;;;;;;17.65;13.18;;;24.10;63.20;;;;;;5037172;28;20059;-75
2022/03/03 09:59:30;;;;;;;15.80;12.20;;;24.30;60.50;;;;;;5033730;28;20037;-76
2022/03/03 10:02:05;;;;;;;17.60;11.30;;;24.90;59.30;;;;;;5031420;28;20041;-75
2022/03/03 10:04:32;;;;;;;16.05;11.60;;;25.10;58.10;;;;;;5029426;28;20029;-76
2022/03/03 10:07:09;;;;;;;17.73;11.95;;;25.10;57.40;;;;;;5030388;28;20124;-76
2022/03/03 10:09:59;;;;;;;18.38;12.27;;;25.50;56.40;;;;;;5032328;28;20453;-76
2022/03/03 10:12:23;;;;;;;16.83;12.00;;;25.50;55.90;;;;;;5033588;28;20037;-76
2022/03/03 10:14:49;;;;;;;17.77;11.63;;;25.70;55.30;;;;;;5032975;28;20418;-76
2022/03/03 10:17:16;;;;;;;16.70;11.88;;;25.60;55.00;;;;;;5033228;28;20029;-76
2022/03/03 10:19:56;;;;;;;17.02;11.55;;;25.80;55.20;;;;;;5029641;28;20029;-76
2022/03/03 10:22:45;;;;;;;16.05;11.68;;;25.10;54.60;;;;;;5030149;28;20044;-76
2022/03/03 10:25:14;;;;;;;18.83;11.73;;;24.70;55.30;;;;;;5024362;28;20049;-76
2022/03/03 10:27:41;;;;;;;15.88;10.63;;;24.30;55.40;;;;;;5032126;28;20022;-76
2022/03/03 10:30:09;;;;;;;17.45;11.45;;;22.90;58.20;;;;;;5035573;28;20065;-76
2022/03/03 10:32:36;;;;;;;17.70;10.95;;;20.70;61.60;;;;;;5033433;28;20417;-76
2022/03/03 10:35:15;;;;;;;16.88;11.73;;;19.30;66.00;;;;;;5032702;28;20029;-76
2022/03/03 10:37:46;;;;;;;17.55;11.75;;;18.60;69.40;;;;;;5021901;28;20037;-76
2022/03/03 10:40:14;;;;;;;17.40;11.77;;;18.00;72.10;;;;;;5033176;28;20045;-76
2022/03/03 10:42:50;;;;;;;18.42;11.48;;;17.60;75.20;;;;;;5032061;28;20037;-76
2022/03/03 10:45:19;;;;;;;15.30;11.68;;;17.30;76.10;;;;;;5036628;28;20083;-76
2022/03/03 10:47:46;;;;;;;19.60;12.05;;;17.20;78.00;;;;;;5033406;28;20056;-76
2022/03/03 10:50:13;;;;;;;17.00;11.48;;;17.10;79.80;;;;;;5035587;28;20565;-76
2022/03/03 10:52:40;;;;;;;16.23;12.02;;;17.10;78.10;;;;;;5029106;28;20163;-76
2022/03/03 10:55:13;;;;;;;16.20;11.32;;;17.10;79.00;;;;;;5032244;28;20053;-76
2022/03/03 10:57:46;;;;;;;17.23;12.57;;;17.00;79.00;;;;;;5036973;28;20020;-76
2022/03/03 11:00:20;;;;;;;15.15;11.40;;;16.80;80.60;;;;;;5039243;28;20032;-76
2022/03/03 11:02:48;;;;;;;18.30;11.88;;;16.80;81.70;;;;;;5031943;28;20748;-76
2022/03/03 11:05:15;;;;;;;16.23;11.77;;;16.80;82.40;;;;;;5036776;28;20036;-76
2022/03/03 11:07:44;;;;;;;22.52;11.65;;;16.80;83.00;;;;;;5032910;28;20040;-76
2022/03/03 11:10:15;;;;;;;18.30;11.60;;;16.70;82.00;;;;;;5034364;28;20022;-76
2022/03/03 11:12:43;;;;;;;15.88;11.38;;;16.70;83.10;;;;;;5031071;28;20018;-76
2022/03/03 11:15:09;;;;;;;15.50;11.43;;;16.70;83.70;;;;;;5032564;28;20075;-75
2022/03/03 11:17:36;;;;;;;18.02;12.07;;;16.80;83.60;;;;;;5030499;28;20430;-76
2022/03/03 11:20:04;;;;;;;17.65;11.25;;;16.80;83.80;;;;;;5031372;28;20383;-76
2022/03/03 11:22:33;;;;;;;18.98;12.23;;;16.80;81.50;;;;;;5030579;28;20057;-75
2022/03/03 11:25:03;;;;;;;18.33;11.10;;;16.90;82.40;;;;;;5027573;28;20124;-75
2022/03/03 11:28:00;;;;;;;19.85;11.85;;;16.80;84.00;;;;;;5030187;28;20113;-76
2022/03/03 11:30:31;;;;;;;15.52;11.00;;;16.80;81.70;;;;;;5021573;28;20033;-77
2022/03/03 11:33:18;;;;;;;15.15;10.57;;;16.80;82.70;;;;;;5029198;28;20030;-76
2022/03/03 11:36:09;;;;;;;17.33;10.93;;;16.90;82.90;;;;;;5028177;28;20491;-78
2022/03/03 11:39:00;;;;;;;19.55;11.88;;;17.00;81.50;;;;;;5027022;28;20116;-79
2022/03/03 11:41:49;;;;;;;16.10;10.77;;;17.00;82.00;;;;;;5027606;28;20223;-74
2022/03/03 11:44:16;;;;;;;14.73;11.40;;;17.10;80.60;;;;;;5028106;28;20029;-75
2022/03/03 11:46:50;;;;;;;17.88;11.02;;;17.20;79.10;;;;;;5025950;28;20033;-75
2022/03/03 11:49:22;;;;;;;16.05;11.15;;;17.40;78.80;;;;;;5027719;28;20050;-75
2022/03/03 11:51:49;;;;;;;16.67;11.10;;;17.40;79.40;;;;;;5027779;28;20057;-75
2022/03/03 11:54:22;;;;;;;15.52;10.75;;;17.60;77.80;;;;;;5029876;28;20117;-74
2022/03/03 11:57:03;;;;;;;16.92;11.18;;;17.60;79.40;;;;;;5026363;28;20175;-74
2022/03/03 11:59:40;;;;;;;20.13;11.77;;;17.70;77.20;;;;;;5027155;28;20037;-73
2022/03/03 12:02:07;;;;;;;17.27;11.38;;;17.80;74.00;;;;;;5026864;28;20050;-74
2022/03/03 12:04:34;;;;;;;15.15;10.68;;;17.90;73.80;;;;;;5027194;28;20128;-75
2022/03/03 12:07:00;;;;;;;13.35;9.77;;;17.90;75.20;;;;;;5028235;28;20057;-77
2022/03/03 12:09:32;;;;;;;18.25;10.80;;;18.00;74.80;;;;;;5031218;28;20116;-73
2022/03/03 12:12:19;;;;;;;18.05;10.27;;;18.10;74.70;;;;;;5028318;28;20033;-75
2022/03/03 12:14:52;;;;;;;17.38;10.63;;;18.10;73.70;;;;;;5027525;28;20026;-75
2022/03/03 12:17:39;;;;;;;14.83;10.60;;;18.40;72.70;;;;;;5027283;28;20490;-75
2022/03/03 12:20:23;;;;;;;17.33;10.50;;;18.50;72.10;;;;;;5029011;28;20034;-75
2022/03/03 12:23:12;;;;;;;14.98;10.07;;;18.80;71.60;;;;;;5029116;28;20453;-76
2022/03/03 12:25:50;;;;;;;14.50;9.57;;;19.80;68.70;;;;;;5028436;28;20029;-75
2022/03/03 12:28:31;;;;;;;17.42;10.60;;;21.70;64.70;;;;;;5029108;28;20033;-77
2022/03/03 12:30:57;;;;;;;16.65;10.50;;;22.80;59.30;;;;;;5029074;28;20042;-78
2022/03/03 12:33:25;;;;;;;15.45;9.48;;;23.50;58.00;;;;;;5030498;28;20673;-78
2022/03/03 12:35:57;;;;;;;18.75;10.52;;;24.40;57.30;;;;;;5027775;28;20033;-78
2022/03/03 12:38:23;;;;;;;15.55;9.43;;;25.10;53.90;;;;;;5030516;28;20033;-78
2022/03/03 12:40:50;;;;;;;14.20;9.82;;;25.40;53.40;;;;;;5030951;28;20405;-78